createdAt,value
2023-03-10T00:00:45.451Z,99680.61526742039
2023-03-10T00:06:47.540Z,99681.3259857207
2023-03-10T00:09:45.116Z,99667.59992002284
2023-03-10T00:12:40.730Z,99659.29076093022
2023-03-10T00:15:37.261Z,99653.30135193001
2023-03-10T00:18:32.809Z,99652.76900820626
2023-03-10T00:21:30.389Z,99657.49880593593
2023-03-10T00:24:25.906Z,99662.44917568621
2023-03-10T00:27:21.502Z,99656.52391674138
2023-03-10T00:30:17.026Z,99656.08337591094
2023-03-10T00:33:12.591Z,99657.01326487037
2023-03-10T00:36:10.226Z,99655.73688482826
2023-03-10T00:39:05.710Z,99649.67466983905
2023-03-10T00:42:03.266Z,99653.56920525216
2023-03-10T00:44:59.809Z,99651.10943276434
2023-03-10T00:47:55.379Z,99655.97564162119
2023-03-10T00:50:50.928Z,99655.434835918
2023-03-10T00:53:46.485Z,99653.90424773665
2023-03-10T00:56:44.042Z,99652.9215533371
2023-03-10T00:59:49.982Z,99642.01358377641
2023-03-10T01:02:40.213Z,99637.72203968148
2023-03-10T01:05:35.763Z,99639.50247313238
2023-03-10T01:08:31.268Z,99628.35182448168
2023-03-10T01:14:33.437Z,99619.57518770402
2023-03-10T01:17:30.949Z,99617.04724338389
2023-03-10T01:20:27.512Z,99615.29156001037
2023-03-10T01:23:24.069Z,99619.9389938387
2023-03-10T01:26:21.618Z,99620.7391719368
2023-03-10T01:29:18.178Z,99611.28340416968
2023-03-10T01:32:13.757Z,99601.17277293789
2023-03-10T01:35:10.316Z,99603.17720138172
2023-03-10T01:38:07.802Z,99590.02958372468
2023-03-10T01:41:05.393Z,99589.24753663306
2023-03-10T01:44:04.983Z,99582.48943515134
2023-03-10T01:47:11.522Z,99580.63761517675
2023-03-10T01:50:11.061Z,99585.27923098128
2023-03-10T01:53:08.652Z,99575.8927030006
2023-03-10T01:56:07.177Z,99568.26793750982
2023-03-10T01:59:05.725Z,99562.09781052056
2023-03-10T02:02:02.378Z,99570.38194325224
2023-03-10T02:05:03.840Z,99572.52486790478
2023-03-10T02:08:00.349Z,99562.39650919703
2023-03-10T02:10:56.949Z,99561.6583166848
2023-03-10T02:13:53.484Z,99561.44790712284
2023-03-10T02:16:50.064Z,99553.30238760928
2023-03-10T02:20:00.522Z,99552.78423943717
2023-03-10T02:22:56.174Z,99557.25699803466
2023-03-10T02:26:00.717Z,99564.70886733568
2023-03-10T02:28:57.274Z,99555.36000938519
2023-03-10T02:31:55.060Z,99559.78530352384
2023-03-10T02:34:50.364Z,99557.25617710664
2023-03-10T02:37:51.862Z,99549.77277817145
2023-03-10T02:41:01.401Z,99539.23147975426
2023-03-10T02:44:00.017Z,99530.01101342373
2023-03-10T02:46:55.520Z,99527.66110648889
2023-03-10T02:49:53.073Z,99515.45626725726
2023-03-10T02:52:57.596Z,99507.42412154192
2023-03-10T02:55:54.216Z,99503.08884085726
2023-03-10T02:58:50.706Z,99498.74459943987
2023-03-10T03:01:47.280Z,99499.23965094115
2023-03-10T03:04:42.877Z,99493.42442118241
2023-03-10T03:07:38.457Z,99493.80796650665
2023-03-10T03:10:34.977Z,99480.65835153848
2023-03-10T03:13:30.547Z,99480.18908258426
2023-03-10T03:16:26.196Z,99476.30251568995
2023-03-10T03:19:21.668Z,99470.15162881957
2023-03-10T03:22:21.221Z,99464.98066341135
2023-03-10T03:25:18.847Z,99466.14178581437
2023-03-10T03:28:15.296Z,99458.17070465865
2023-03-10T03:31:14.899Z,99461.79320530836
2023-03-10T03:34:10.434Z,99466.80441174675
2023-03-10T03:37:07.045Z,99461.60378897138
2023-03-10T03:40:12.514Z,99461.56687988884
2023-03-10T03:43:08.079Z,99450.07495219096
2023-03-10T03:46:05.917Z,99454.69618988244
2023-03-10T03:49:01.233Z,99453.49272783143
2023-03-10T03:51:56.761Z,99457.41574433602
2023-03-10T03:54:52.345Z,99451.46085342989
2023-03-10T03:57:48.921Z,99445.21039289661
2023-03-10T04:00:48.220Z,99453.05685770608
2023-03-10T04:03:45.167Z,99441.00137189607
2023-03-10T04:06:40.560Z,99437.02948930062
2023-03-10T04:09:39.131Z,99444.5882079331
2023-03-10T04:12:34.705Z,99440.40721025431
2023-03-10T04:15:30.357Z,99436.98114136701
2023-03-10T04:18:26.828Z,99436.01711078253
2023-03-10T04:21:22.392Z,99442.07366852908
2023-03-10T04:24:17.930Z,99439.33389862487
2023-03-10T04:27:13.454Z,99434.65361356165
2023-03-10T04:30:11.014Z,99436.46559145671
2023-03-10T04:33:07.612Z,99438.12995344959
2023-03-10T04:36:04.247Z,99428.90709770321
2023-03-10T04:38:59.730Z,99426.48953152941
2023-03-10T04:41:56.302Z,99426.51158803045
2023-03-10T04:44:51.807Z,99421.48522092901
2023-03-10T04:47:47.420Z,99414.67366279743
2023-03-10T04:50:43.952Z,99415.22610683054
2023-03-10T04:53:40.544Z,99411.57416935822
2023-03-10T04:56:38.096Z,99400.363288988
2023-03-10T04:59:33.642Z,99410.23792829951
2023-03-10T05:02:29.194Z,99402.96301454857
2023-03-10T05:05:24.798Z,99399.81516173
2023-03-10T05:08:20.346Z,99397.20088698599
2023-03-10T05:11:16.851Z,99393.88191501223
2023-03-10T05:14:12.439Z,99387.0426402755
2023-03-10T05:17:08.017Z,99378.59266893922
2023-03-10T05:20:07.564Z,99384.11499904853
2023-03-10T05:23:03.130Z,99374.13396167649
2023-03-10T05:25:58.758Z,99373.2820068449
2023-03-10T05:28:56.254Z,99364.4787874681
2023-03-10T05:31:57.783Z,99367.08941521506
2023-03-10T05:34:56.380Z,99360.03126070155
2023-03-10T05:37:52.914Z,99353.0186401325
2023-03-10T05:40:51.475Z,99354.24273809468
2023-03-10T05:43:46.999Z,99338.12301289615
2023-03-10T05:46:43.620Z,99338.31120426174
2023-03-10T05:49:39.167Z,99337.35756498436
2023-03-10T05:52:36.704Z,99330.80187160436
2023-03-10T05:55:32.251Z,99334.20536371836
2023-03-10T05:58:27.767Z,99332.2262853943
2023-03-10T06:01:24.340Z,99331.68390117338
2023-03-10T06:04:20.040Z,99331.05011711024
2023-03-10T06:07:15.508Z,99322.65743301265
2023-03-10T06:10:11.074Z,99319.46092244727
2023-03-10T06:13:06.587Z,99321.72713998622
2023-03-10T06:16:04.265Z,99324.72497425367
2023-03-10T06:19:00.726Z,99319.76750314851
2023-03-10T06:21:57.294Z,99318.55098847841
2023-03-10T06:24:52.866Z,99320.54472592458
2023-03-10T06:27:48.397Z,99327.90774630856
2023-03-10T06:30:43.976Z,99324.09155344522
2023-03-10T06:33:39.569Z,99317.32921227625
2023-03-10T06:36:37.088Z,99322.1370044218
2023-03-10T06:39:32.647Z,99311.50961047343
2023-03-10T06:42:28.228Z,99314.24192669502
2023-03-10T06:45:25.729Z,99315.14981436619
2023-03-10T06:48:21.296Z,99312.45448062789
2023-03-10T06:51:20.886Z,99315.90295891931
2023-03-10T06:54:16.434Z,99315.40168427498
2023-03-10T06:57:12.008Z,99311.0355319466
2023-03-10T07:00:11.590Z,99316.62013946817
2023-03-10T07:03:07.093Z,99322.27323347045
2023-03-10T07:06:02.637Z,99310.4762597301
2023-03-10T07:08:58.286Z,99303.21155285853
2023-03-10T07:11:54.752Z,99295.14103516079
2023-03-10T07:14:51.332Z,99297.91184523923
2023-03-10T07:17:46.875Z,99297.33408573469
2023-03-10T07:20:44.466Z,99294.43296497004
2023-03-10T07:23:40.021Z,99294.81545290067
2023-03-10T07:26:39.576Z,99286.61314231862
2023-03-10T07:29:36.155Z,99293.71964680697
2023-03-10T07:32:31.720Z,99284.74866822487
2023-03-10T07:35:27.264Z,99289.65991615682
2023-03-10T07:38:22.868Z,99286.748295479
2023-03-10T07:41:20.378Z,99289.27170713834
2023-03-10T07:44:15.939Z,99289.63492716114
2023-03-10T07:47:11.526Z,99283.80001859869
2023-03-10T07:50:08.040Z,99281.23547375607
2023-03-10T07:53:03.628Z,99277.83094174351
2023-03-10T07:56:00.181Z,99278.6820887684
2023-03-10T07:58:58.751Z,99273.24241738886
2023-03-10T08:01:54.287Z,99271.27158658463
2023-03-10T08:04:49.892Z,99273.71211422418
2023-03-10T08:07:45.388Z,99272.78540774966
2023-03-10T08:10:42.517Z,99271.47109182204
2023-03-10T08:13:39.097Z,99261.75695305008
2023-03-10T08:16:35.580Z,99272.81626467347
2023-03-10T08:19:31.674Z,99266.21851157575
2023-03-10T08:22:28.208Z,99264.89964803078
2023-03-10T08:25:23.802Z,99267.57875536196
2023-03-10T08:28:19.360Z,99275.34248789184
2023-03-10T08:31:15.885Z,99268.11767653942
2023-03-10T08:34:12.464Z,99265.5006460474
2023-03-10T08:37:07.995Z,99267.97992438213
2023-03-10T08:40:07.596Z,99263.77329193724
2023-03-10T08:43:03.107Z,99266.61593164943
2023-03-10T08:45:58.639Z,99265.1014416517
2023-03-10T08:48:54.270Z,99258.6899764998
2023-03-10T08:51:49.822Z,99248.95540493193
2023-03-10T08:54:47.333Z,99243.11967124125
2023-03-10T08:57:42.898Z,99245.96378503264
2023-03-10T09:00:42.491Z,99240.83335331261
2023-03-10T09:03:39.065Z,99233.84596976086
2023-03-10T09:06:36.605Z,99229.17248525482
2023-03-10T09:09:32.193Z,99227.86852112736
2023-03-10T09:12:34.086Z,99223.81440384887
2023-03-10T09:15:29.250Z,99234.0663550666
2023-03-10T09:18:26.816Z,99221.50794790819
2023-03-10T09:21:22.402Z,99214.86581559964
2023-03-10T09:24:19.940Z,99219.66625323688
2023-03-10T09:27:15.490Z,99213.56193056534
2023-03-10T09:30:12.054Z,99213.3093476468
2023-03-10T09:33:12.591Z,99211.55856096021
2023-03-10T09:36:08.358Z,99209.73847899407
2023-03-10T09:39:04.769Z,99213.44723814937
2023-03-10T09:42:25.530Z,99211.3046330019
2023-03-10T09:45:30.863Z,99214.59586081836
2023-03-10T09:48:39.283Z,99210.72484369474
2023-03-10T09:51:42.817Z,99215.47480358281
2023-03-10T09:54:51.335Z,99205.5860053024
2023-03-10T09:57:49.928Z,99198.04462539486
2023-03-10T10:00:51.463Z,99193.47458629483
2023-03-10T10:03:53.330Z,99189.29642584293
2023-03-10T10:06:52.568Z,99185.22520862755
2023-03-10T10:09:56.078Z,99188.10057032229
2023-03-10T10:12:58.646Z,99182.2458452877
2023-03-10T10:16:18.218Z,99179.43621843077
2023-03-10T10:19:05.802Z,99167.97821642921
2023-03-10T10:22:10.292Z,99171.91382270309
2023-03-10T10:25:13.832Z,99161.66266295523
2023-03-10T10:28:18.330Z,99150.63524324192
2023-03-10T10:31:17.036Z,99146.38228997066
2023-03-10T10:34:19.794Z,99143.44794179207
2023-03-10T10:37:24.998Z,99140.88268886867
2023-03-10T10:40:23.556Z,99134.07930514435
2023-03-10T10:43:24.125Z,99133.22409081407
2023-03-10T10:46:27.711Z,99127.71162803176
2023-03-10T10:49:33.160Z,99124.98479452038
2023-03-10T10:52:30.731Z,99122.61650668937
2023-03-10T10:55:31.238Z,99110.856791134
2023-03-10T10:58:30.852Z,99109.52825328216
2023-03-10T11:01:27.483Z,99105.89926890175
2023-03-10T11:04:28.873Z,99105.40760107347
2023-03-10T11:07:27.489Z,99098.79134068755
2023-03-10T11:10:27.012Z,99100.10139275878
2023-03-10T11:13:31.561Z,99096.33664822562
2023-03-10T11:16:35.119Z,99091.45326065099
2023-03-10T11:19:39.615Z,99079.64975550238
2023-03-10T11:22:42.182Z,99086.2160029833
2023-03-10T11:25:46.719Z,99092.40584590122
2023-03-10T11:28:53.268Z,99079.06793250698
2023-03-10T11:31:58.795Z,99084.46466169815
2023-03-10T11:35:07.361Z,99064.07829669946
2023-03-10T11:38:12.865Z,99057.189640225
2023-03-10T11:41:14.465Z,99052.38847467805
2023-03-10T11:44:22.940Z,99056.65946654345
2023-03-10T11:47:29.500Z,99049.31737907349
2023-03-10T11:50:33.017Z,99051.67285874057
2023-03-10T11:53:37.592Z,99034.87022252618
2023-03-10T11:56:35.116Z,99042.81660346342
2023-03-10T11:59:36.662Z,99033.51730016683
2023-03-10T12:02:41.172Z,99040.1207309641
2023-03-10T12:05:43.984Z,99030.81212311682
2023-03-10T12:08:40.294Z,99033.16259292745
2023-03-10T12:11:37.849Z,99032.51080649308
2023-03-10T12:14:34.380Z,99030.08114694172
2023-03-10T12:17:30.960Z,99012.35162181933
2023-03-10T12:20:37.514Z,99006.47897328873
2023-03-10T12:23:41.065Z,99007.36128188446
2023-03-10T12:26:46.548Z,99000.69617095921
2023-03-10T12:29:52.132Z,98995.18659298033
2023-03-10T12:32:57.755Z,98993.56557692129
2023-03-10T12:35:56.259Z,98988.67897144919
2023-03-10T12:39:01.766Z,98978.79077374263
2023-03-10T12:42:17.291Z,98971.96734962908
2023-03-10T12:45:23.796Z,98967.36090269583
2023-03-10T12:48:26.289Z,98963.32631266904
2023-03-10T12:51:25.945Z,98972.3789759386
2023-03-10T12:54:37.382Z,98971.28580062615
2023-03-10T12:57:39.957Z,98958.28925399481
2023-03-10T13:00:42.522Z,98948.73157637974
2023-03-10T13:03:46.098Z,98949.58294093884
2023-03-10T13:06:48.611Z,98938.36008007322
2023-03-10T13:09:50.111Z,98940.54488344918
2023-03-10T13:12:50.688Z,98932.78814996041
2023-03-10T13:15:56.179Z,98930.57984251597
2023-03-10T13:18:53.788Z,98924.04873763662
2023-03-10T13:21:55.287Z,98911.83012465657
2023-03-10T13:24:58.882Z,98904.94986779091
2023-03-10T13:27:57.579Z,98907.5612937754
2023-03-10T13:30:59.962Z,98908.73896350508
2023-03-10T13:34:03.499Z,98901.79899666432
2023-03-10T13:37:03.061Z,98905.74477145272
2023-03-10T13:40:06.565Z,98893.61984420072
2023-03-10T13:43:08.111Z,98888.65649687803
2023-03-10T13:46:09.965Z,98883.31664020891
2023-03-10T13:49:07.232Z,98888.43233380746
2023-03-10T13:52:05.802Z,98888.34402680588
2023-03-10T13:55:05.313Z,98884.99727643142
2023-03-10T13:58:05.888Z,98891.02600293247
2023-03-10T14:01:02.483Z,98899.30594808157
2023-03-10T14:03:59.024Z,98886.9931388713
2023-03-10T14:07:00.541Z,98878.71329489228
2023-03-10T14:10:07.060Z,98874.24106994117
2023-03-10T14:13:15.590Z,98867.77973883356
2023-03-10T14:16:11.168Z,98859.82669947413
2023-03-10T14:19:08.750Z,98853.43146467018
2023-03-10T14:22:10.304Z,98849.4796402987
2023-03-10T14:25:07.827Z,98841.33499551384
2023-03-10T14:28:10.370Z,98842.70850170219
2023-03-10T14:31:07.132Z,98838.81744594256
2023-03-10T14:34:02.476Z,98834.04601510412
2023-03-10T14:36:58.047Z,98830.4771485218
2023-03-10T14:39:53.595Z,98825.1471809269
2023-03-10T14:42:52.203Z,98817.72215845468
2023-03-10T14:45:55.824Z,98813.68042593855
2023-03-10T14:48:52.294Z,98811.77337591011
2023-03-10T14:51:50.841Z,98807.67024970235
2023-03-10T14:54:48.400Z,98793.48248687419
2023-03-10T14:57:45.929Z,98791.67996305082
2023-03-10T15:00:46.488Z,98791.52705751506
2023-03-10T15:03:43.062Z,98788.9487671784
2023-03-10T15:06:38.592Z,98776.36522453201
2023-03-10T15:09:35.153Z,98777.40593493366
2023-03-10T15:12:32.713Z,98770.07964240709
2023-03-10T15:15:32.284Z,98770.42893658119
2023-03-10T15:18:27.854Z,98754.47183663635
2023-03-10T15:21:23.401Z,98751.6373606703
2023-03-10T15:24:19.953Z,98749.79466986128
2023-03-10T15:27:15.529Z,98747.98549829553
2023-03-10T15:30:16.077Z,98739.89829436589
2023-03-10T15:33:12.634Z,98733.76031485674
2023-03-10T15:36:10.256Z,98737.53707261436
2023-03-10T15:39:05.724Z,98746.2850324436
2023-03-10T15:42:05.311Z,98754.16216072635
2023-03-10T15:45:04.894Z,98744.8553609359
2023-03-10T15:48:00.470Z,98745.53016533493
2023-03-10T15:50:57.007Z,98739.75572104656
2023-03-10T15:53:52.490Z,98747.39045918008
2023-03-10T15:56:48.118Z,98742.51064526061
2023-03-10T15:59:43.667Z,98751.30968209749
2023-03-10T16:02:41.231Z,98754.00070796463
2023-03-10T16:05:38.748Z,98750.27055713643
2023-03-10T16:08:38.320Z,98746.92011879313
2023-03-10T16:11:34.881Z,98737.2406088525
2023-03-10T16:14:30.474Z,98741.18632958509
2023-03-10T16:17:28.017Z,98729.1010917367
2023-03-10T16:20:23.563Z,98716.55271835584
2023-03-10T16:23:19.115Z,98718.34831067554
2023-03-10T16:26:16.712Z,98712.07553758984
2023-03-10T16:29:14.212Z,98712.76862963547
2023-03-10T16:32:11.899Z,98706.9137783185
2023-03-10T16:35:08.382Z,98718.35401872323
2023-03-10T16:38:03.925Z,98717.33498641709
2023-03-10T16:41:00.492Z,98721.87063264847
2023-03-10T16:44:03.033Z,98736.21601013439
2023-03-10T16:47:01.605Z,98736.8370974288
2023-03-10T16:49:57.073Z,98740.33070430215
2023-03-10T16:52:56.830Z,98738.37667348653
2023-03-10T16:55:57.236Z,98735.87679830793
2023-03-10T16:58:52.772Z,98738.01819081303
2023-03-10T17:01:49.344Z,98741.1975354698
2023-03-10T17:04:45.973Z,98739.36305586809
2023-03-10T17:07:54.772Z,98744.29856902921
2023-03-10T17:10:44.297Z,98743.97848664653
2023-03-10T17:13:39.534Z,98748.65365719935
2023-03-10T17:16:45.256Z,98754.70362077997
2023-03-10T17:19:43.671Z,98748.55066328177
2023-03-10T17:22:39.214Z,98749.16082989742
2023-03-10T17:25:35.778Z,98751.98011615018
2023-03-10T17:28:32.319Z,98745.42732949507
2023-03-10T17:31:28.961Z,98732.37651073207
2023-03-10T17:34:26.455Z,98724.87818043782
2023-03-10T17:37:22.050Z,98711.54993012169
2023-03-10T17:40:21.654Z,98715.32677569108
2023-03-10T17:43:32.920Z,98715.67803765858
2023-03-10T17:46:23.689Z,98716.68668910145
2023-03-10T17:49:19.263Z,98711.28002309869
2023-03-10T17:52:15.758Z,98702.53605860988
2023-03-10T17:55:11.347Z,98700.81350491181
2023-03-10T17:58:06.909Z,98696.32113922012
2023-03-10T18:01:08.438Z,98701.22776576072
2023-03-10T18:04:05.058Z,98695.2279366603
2023-03-10T18:07:01.546Z,98698.73909646986
2023-03-10T18:13:02.618Z,98698.40394283274
2023-03-10T18:15:58.291Z,98691.7167819859
2023-03-10T18:18:55.808Z,98687.10926851712
2023-03-10T18:21:52.385Z,98675.76261636268
2023-03-10T18:24:47.936Z,98665.06590413647
2023-03-10T18:30:50.052Z,98678.91314175272
2023-03-10T18:33:45.539Z,98678.3978313374
2023-03-10T18:36:45.147Z,98671.33218300581
2023-03-10T18:39:41.699Z,98669.94125281546
2023-03-10T18:42:37.224Z,98663.09190783222
2023-03-10T18:45:32.752Z,98662.747447101
2023-03-10T18:48:29.378Z,98657.44589739578
2023-03-10T18:51:25.929Z,98650.29073225155
2023-03-10T18:54:21.463Z,98643.81804912396
2023-03-10T18:57:17.032Z,98636.53735578271
2023-03-10T19:00:14.600Z,98637.93768529699
2023-03-10T19:03:13.308Z,98631.7004940646
2023-03-10T19:06:09.774Z,98629.26177039355
2023-03-10T19:09:08.261Z,98631.44164928432
2023-03-10T19:12:07.854Z,98630.8916631952
2023-03-10T19:15:08.337Z,98620.93301844655
2023-03-10T19:18:03.929Z,98614.87519609509
2023-03-10T19:20:59.498Z,98609.80521585034
2023-03-10T19:23:55.032Z,98611.59043772511
2023-03-10T19:26:50.584Z,98605.90925639162
2023-03-10T19:32:51.763Z,98606.2881161933
2023-03-10T19:35:48.256Z,98597.93367151445
2023-03-10T19:38:44.822Z,98607.02564346288
2023-03-10T19:41:43.399Z,98608.11682064742
2023-03-10T19:44:38.903Z,98604.45756029106
2023-03-10T19:47:34.555Z,98588.24994360894
2023-03-10T19:50:30.086Z,98595.46612021688
2023-03-10T19:53:26.566Z,98604.69807736244
2023-03-10T19:56:26.158Z,98613.46445946729
2023-03-10T19:59:24.729Z,98611.66054304986
2023-03-10T20:02:21.255Z,98619.16557874536
2023-03-10T20:05:16.845Z,98619.59510080582
2023-03-10T20:08:13.432Z,98623.66323329232
2023-03-10T20:11:12.939Z,98612.53091213346
2023-03-10T20:14:09.492Z,98601.76837363094
2023-03-10T20:17:06.153Z,98607.94580078112
2023-03-10T20:20:09.628Z,98601.8657856889
2023-03-10T20:23:05.166Z,98600.7884239034
2023-03-10T20:26:01.811Z,98601.88850786397
2023-03-10T20:28:57.259Z,98603.99981907879
2023-03-10T20:31:53.844Z,98610.17078564134
2023-03-10T20:34:53.456Z,98602.80567639333
2023-03-10T20:37:49.003Z,98597.22968346097
2023-03-10T20:40:45.497Z,98599.45420140775
2023-03-10T20:43:43.068Z,98598.6317753262
2023-03-10T20:46:40.647Z,98598.11299000644
2023-03-10T20:49:37.140Z,98601.61434757001
2023-03-10T20:52:33.769Z,98610.87705013614
2023-03-10T20:55:30.279Z,98612.9653044102
2023-03-10T20:58:27.866Z,98618.47681642407
2023-03-10T21:01:23.541Z,98624.53880569217
2023-03-10T21:04:20.101Z,98628.87576234723
2023-03-10T21:07:15.541Z,98624.75599764418
2023-03-10T21:10:13.100Z,98617.76185362315
2023-03-10T21:13:08.692Z,98625.75133156098
2023-03-10T21:19:09.760Z,98619.60238433459
2023-03-10T21:22:06.378Z,98618.04092339583
2023-03-10T21:25:03.883Z,98619.76230261695
2023-03-10T21:27:59.457Z,98612.81086146475
2023-03-10T21:30:56.184Z,98608.6580508837
2023-03-10T21:33:58.508Z,98611.0208181592
2023-03-10T21:36:55.109Z,98610.16511231463
2023-03-10T21:39:50.638Z,98603.26920008869
2023-03-10T21:42:48.216Z,98607.70496526205
2023-03-10T21:45:45.772Z,98600.48512982149
2023-03-10T21:48:44.405Z,98599.80491335245
2023-03-10T21:51:41.907Z,98602.32534312284
2023-03-10T21:54:37.521Z,98609.32591730941
2023-03-10T21:57:33.007Z,98611.67800142837
2023-03-10T22:00:29.554Z,98607.58363464514
2023-03-10T22:03:25.143Z,98609.0615508281
2023-03-10T22:06:21.689Z,98615.61693831281
2023-03-10T22:09:17.268Z,98621.361766515
2023-03-10T22:12:12.821Z,98619.42724155264
2023-03-10T22:15:12.377Z,98621.06284322929
2023-03-10T22:18:08.210Z,98617.65541623415
2023-03-10T22:21:03.457Z,98617.37911524663
2023-03-10T22:24:00.093Z,98612.55224240423
2023-03-10T22:26:55.660Z,98608.75798738237
2023-03-10T22:29:51.164Z,98610.17275837288
2023-03-10T22:32:46.798Z,98602.97649439785
2023-03-10T22:35:45.367Z,98603.44006780384
2023-03-10T22:38:40.841Z,98601.74801896054
2023-03-10T22:41:40.380Z,98603.94875085633
2023-03-10T22:44:36.963Z,98607.9664292233
2023-03-10T22:47:32.475Z,98604.96321126223
2023-03-10T22:50:29.017Z,98609.95328874276
2023-03-10T22:53:24.604Z,98613.15353191971
2023-03-10T22:56:21.203Z,98618.33682103003
2023-03-10T22:59:16.719Z,98615.2182667148
2023-03-10T23:02:12.301Z,98616.52822033934
2023-03-10T23:05:07.866Z,98621.21326821928
2023-03-10T23:08:05.430Z,98617.46053173086
2023-03-10T23:11:01.980Z,98626.39424315683
2023-03-10T23:14:01.537Z,98620.57813882688
2023-03-10T23:16:57.054Z,98619.15174073525
2023-03-10T23:19:55.714Z,98614.20328520694
2023-03-10T23:22:51.207Z,98599.5000574882
2023-03-10T23:25:50.838Z,98601.47422363936
2023-03-10T23:28:48.302Z,98592.64812910638
2023-03-10T23:31:46.874Z,98580.83195485332
2023-03-10T23:37:48.975Z,98578.16887661148
2023-03-10T23:40:46.494Z,98573.4034600987
2023-03-10T23:43:43.049Z,98565.11586303166
2023-03-10T23:46:39.582Z,98572.95255620482
2023-03-10T23:49:35.207Z,98572.88285783505
2023-03-10T23:52:30.717Z,98581.49831130754
2023-03-10T23:55:27.325Z,98591.45801188718
2023-03-10T23:58:22.894Z,98591.32314296844
